Siam — SGIP — position and weather

sailwx.info

Track history (hours):
 
Tides and Currents Weather Stations Pressure Air Temp Water Temp Dewpoint Dewpoint Depression Visibility Wind Speed Wind Dir Waves Ship Positions

Siam

Last reported at 2014-Jul-31 06:32 UTC. Time now 2014-Jul-31 07:31 UTC.
Position N 55°54' E 012°44'.

Length 22 m.

Type: Passenger vessel. MMSI: 265572320.

Date/timePositionNaut miles runAvg speedWind from/ knotsBaromVisibWave heightAir tempDewpointWater temp
2014-Jul-31 06:32N 55°54' E 012°44'5 5.2
2014-Jul-31 05:33N 55°60' E 012°45'0 0.0
2014-Jul-31 04:33N 55°60' E 012°45'0 0.0
2014-Jul-31 03:33N 55°60' E 012°45'0 0.0
2014-Jul-31 02:33N 55°60' E 012°45'0 0.0
2014-Jul-31 01:33N 55°60' E 012°45'0 0.0
2014-Jul-31 00:33N 55°60' E 012°45'0 0.0
2014-Jul-30 23:33N 55°60' E 012°45'0 0.0
2014-Jul-30 22:33N 55°60' E 012°45'0 0.0
2014-Jul-30 21:33N 55°60' E 012°45'0 0.0
2014-Jul-30 20:30N 55°60' E 012°45'0 0.0
2014-Jul-30 19:30N 55°60' E 012°45'0 0.0
2014-Jul-30 18:33N 55°60' E 012°45'0 0.0
2014-Jul-30 17:33N 55°60' E 012°45'0 0.0
2014-Jul-30 16:33N 55°60' E 012°45'0 0.0
2014-Jul-30 15:33N 55°60' E 012°45'5 3.8
2014-Jul-30 14:08N 55°54' E 012°43'5 8.9
2014-Jul-30 13:33N 55°59' E 012°44'5 4.3
2014-Jul-30 12:21N 55°54' E 012°43'5 6.3
2014-Jul-30 11:33N 55°59' E 012°44'0 0.4
2014-Jul-30 10:31N 55°60' E 012°45'4 3.7
2014-Jul-30 09:34N 55°56' E 012°43'0 0.2
2014-Jul-30 08:33N 55°56' E 012°44'0 0.3
2014-Jul-30 07:31N 55°56' E 012°43'2 1.7
2014-Jul-30 06:33N 55°58' E 012°43'2 2.2
2014-Jul-30 05:31N 55°60' E 012°45'0 0.0
2014-Jul-30 04:31N 55°60' E 012°45'0 0.0
2014-Jul-30 03:31N 55°60' E 012°45'0 0.0
2014-Jul-30 02:31N 55°60' E 012°45'0 0.0
2014-Jul-30 01:31N 55°60' E 012°45'0 0.0
2014-Jul-30 00:28N 55°60' E 012°45'0 0.0
2014-Jul-29 23:31N 55°60' E 012°45'0 0.0
2014-Jul-29 22:31N 55°60' E 012°45'0 0.0
2014-Jul-29 21:31N 55°60' E 012°45'0 0.0
2014-Jul-29 20:31N 55°60' E 012°45'0 0.0
2014-Jul-29 19:31N 55°60' E 012°45'0 0.0
2014-Jul-29 18:31N 55°60' E 012°45'0 0.0
2014-Jul-29 17:31N 55°60' E 012°45'0 0.0
2014-Jul-29 16:31N 55°60' E 012°45'0 0.0
2014-Jul-29 15:31N 55°60' E 012°45'2 2.2
2014-Jul-29 14:33N 55°58' E 012°44'2 1.5
2014-Jul-29 13:32N 55°56' E 012°44'0 0.1
2014-Jul-29 12:31N 55°56' E 012°44'4 3.7
2014-Jul-29 11:33N 55°60' E 012°45'0 0.0
2014-Jul-29 10:33N 55°60' E 012°45'4 3.7
2014-Jul-29 09:33N 55°56' E 012°44'2 2.3
2014-Jul-29 08:33N 55°56' E 012°40'2 1.6
2014-Jul-29 07:31N 55°57' E 012°41'2 2.2
2014-Jul-29 06:34N 55°60' E 012°42'2 1.7
2014-Jul-29 05:33N 55°60' E 012°45'0 0.0
2014-Jul-29 04:21N 55°60' E 012°45'0 0.0
2014-Jul-29 03:33N 55°60' E 012°45'0 0.0
2014-Jul-29 02:27N 55°60' E 012°45'0 0.0
2014-Jul-29 01:33N 55°60' E 012°45'0 0.0
2014-Jul-29 00:27N 55°60' E 012°45'0 0.0
2014-Jul-28 23:33N 55°60' E 012°45'0 0.0
2014-Jul-28 22:33N 55°60' E 012°45'0 0.0
2014-Jul-28 21:33N 55°60' E 012°45'0 0.0
2014-Jul-28 20:30N 55°60' E 012°45'0 0.0
2014-Jul-28 19:33N 55°60' E 012°45'0 0.0
2014-Jul-28 18:33N 55°60' E 012°45'0 0.0
2014-Jul-28 17:33N 55°60' E 012°45'0 0.0
2014-Jul-28 16:33N 55°60' E 012°45'0 0.0
2014-Jul-28 15:33N 55°60' E 012°45'0 0.0
2014-Jul-28 14:33N 55°60' E 012°45'0 0.0
2014-Jul-28 13:33N 55°60' E 012°45'0 0.0
2014-Jul-28 12:33N 55°60' E 012°45'0 0.0
2014-Jul-28 11:33N 55°60' E 012°45'0 0.0
2014-Jul-28 10:33N 55°60' E 012°45'0 0.0
2014-Jul-28 09:33N 55°60' E 012°45'0 0.0
2014-Jul-28 08:30N 55°60' E 012°45'0 0.0
2014-Jul-28 07:21N 55°60' E 012°45'0 0.0
2014-Jul-28 06:33N 55°60' E 012°45'0 0.0
2014-Jul-28 05:33N 55°60' E 012°45'0 0.0
2014-Jul-28 04:33N 55°60' E 012°45'0 0.0
2014-Jul-28 03:33N 55°60' E 012°45'0 0.0
2014-Jul-28 02:33N 55°60' E 012°45'0 0.0
2014-Jul-28 01:33N 55°60' E 012°45'0 0.0
2014-Jul-28 00:33N 55°60' E 012°45'0 0.0
2014-Jul-27 23:30N 55°60' E 012°45'0 0.0
2014-Jul-27 22:33N 55°60' E 012°45'0 0.0
2014-Jul-27 21:33N 55°60' E 012°45'0 0.0
2014-Jul-27 20:30N 55°60' E 012°45'0 0.0
2014-Jul-27 19:33N 55°60' E 012°45'0 0.0
2014-Jul-27 18:33N 55°60' E 012°45'0 0.0
2014-Jul-27 17:30N 55°60' E 012°45'0 0.0
2014-Jul-27 16:27N 55°60' E 012°45'0 0.0
2014-Jul-27 15:33N 55°60' E 012°45'3 3.0
2014-Jul-27 14:33N 55°57' E 012°44'1 1.4
2014-Jul-27 13:33N 55°58' E 012°44'2 1.6
2014-Jul-27 12:32N 55°60' E 012°45'0 0.0
2014-Jul-27 11:32N 55°60' E 012°45'0 0.0
2014-Jul-27 10:32N 55°60' E 012°45'1 1.4
2014-Jul-27 09:32N 55°60' E 012°42'0 0.2
2014-Jul-27 08:31N 55°59' E 012°42'0 0.1
2014-Jul-27 07:32N 55°60' E 012°42'0 0.0
2014-Jul-27 06:33N 55°59' E 012°42'1 1.4
2014-Jul-27 05:32N 55°60' E 012°45'0 0.0
2014-Jul-27 04:29N 55°60' E 012°45'0 0.0
2014-Jul-27 03:32N 55°60' E 012°45'0 0.0
2014-Jul-27 02:32N 55°60' E 012°45'0 0.0
2014-Jul-27 01:32N 55°60' E 012°45'0 0.0
2014-Jul-27 00:32N 55°60' E 012°45'0 0.0
2014-Jul-26 23:32N 55°60' E 012°45'0 0.0
2014-Jul-26 22:29N 55°60' E 012°45'0 0.0
2014-Jul-26 21:29N 55°60' E 012°45'0 0.0
2014-Jul-26 20:32N 55°60' E 012°45'0 0.0
2014-Jul-26 19:32N 55°60' E 012°45'0 0.0
2014-Jul-26 18:32N 55°60' E 012°45'0 0.0
2014-Jul-26 17:32N 55°60' E 012°45'0 0.0
2014-Jul-26 16:32N 55°60' E 012°45'0 0.0
2014-Jul-26 15:29N 55°60' E 012°45'2 2.4
2014-Jul-26 14:33N 55°57' E 012°44'2 1.7
2014-Jul-26 13:33N 55°56' E 012°44'4 3.7
2014-Jul-26 12:29N 55°60' E 012°45'0 0.0
2014-Jul-26 11:29N 55°60' E 012°45'0 0.0
2014-Jul-26 10:32N 55°60' E 012°45'4 3.6
2014-Jul-26 09:31N 55°56' E 012°41'1 1.3
2014-Jul-26 08:33N 55°58' E 012°41'2 1.9
2014-Jul-26 07:33N 55°60' E 012°42'0 0.2
2014-Jul-26 06:34N 55°59' E 012°42'1 1.4
2014-Jul-26 05:29N 55°60' E 012°45'0 0.0
2014-Jul-26 04:32N 55°60' E 012°45'0 0.0
2014-Jul-26 03:32N 55°60' E 012°45'0 0.0
2014-Jul-26 02:32N 55°60' E 012°45'0 0.0
2014-Jul-26 01:32N 55°60' E 012°45'0 0.0
2014-Jul-26 00:29N 55°60' E 012°45'0 0.0
2014-Jul-25 23:32N 55°60' E 012°45'0 0.0
2014-Jul-25 22:32N 55°60' E 012°45'0 0.0
2014-Jul-25 21:32N 55°60' E 012°45'0 0.0
2014-Jul-25 20:32N 55°60' E 012°45'0 0.0
2014-Jul-25 19:32N 55°60' E 012°45'0 0.0
2014-Jul-25 18:32N 55°60' E 012°45'0 0.0
2014-Jul-25 17:32N 55°60' E 012°45'0 0.0
2014-Jul-25 16:32N 55°60' E 012°45'0 0.0
2014-Jul-25 15:32N 55°60' E 012°45'0 0.0
2014-Jul-25 14:32N 55°60' E 012°45'0 0.0
2014-Jul-25 13:32N 55°60' E 012°45'0 0.0
2014-Jul-25 12:29N 55°60' E 012°45'0 0.0
2014-Jul-25 11:32N 55°60' E 012°45'0 0.0
2014-Jul-25 10:32N 55°60' E 012°45'4 3.6
2014-Jul-25 09:31N 55°56' E 012°42'2 2.4
2014-Jul-25 08:33N 55°59' E 012°42'1 0.9
2014-Jul-25 07:32N 55°60' E 012°42'0 0.1
2014-Jul-25 06:33N 55°59' E 012°42'2 1.6
2014-Jul-25 05:32N 55°60' E 012°45'0 0.0
2014-Jul-25 04:32N 55°60' E 012°45'0 0.0
2014-Jul-25 03:32N 55°60' E 012°45'0 0.0
2014-Jul-25 02:32N 55°60' E 012°45'0 0.0
2014-Jul-25 01:32N 55°60' E 012°45'0 0.0
2014-Jul-25 00:32N 55°60' E 012°45'0 0.0
2014-Jul-24 23:32N 55°60' E 012°45'0 0.0
2014-Jul-24 22:32N 55°60' E 012°45'0 0.0
2014-Jul-24 21:32N 55°60' E 012°45'0 0.0
2014-Jul-24 20:32N 55°60' E 012°45'0 0.0
2014-Jul-24 19:32N 55°60' E 012°45'0 0.0
2014-Jul-24 18:32N 55°60' E 012°45'0 0.0
2014-Jul-24 17:32N 55°60' E 012°45'0 0.0
2014-Jul-24 16:32N 55°60' E 012°45'0 0.0
2014-Jul-24 15:32N 55°60' E 012°45'0 0.0
2014-Jul-24 14:32N 55°60' E 012°45'0 0.0
2014-Jul-24 13:32N 55°60' E 012°45'0 0.0
2014-Jul-24 12:32N 55°60' E 012°45'0 0.0
2014-Jul-24 11:32N 55°60' E 012°45'0 0.0
2014-Jul-24 10:29N 55°60' E 012°45'4 3.8
2014-Jul-24 09:33N 55°56' E 012°43'1 1.1
2014-Jul-24 08:33N 55°56' E 012°41'1 1.2
2014-Jul-24 07:33N 55°57' E 012°41'2 2.2
2014-Jul-24 06:32N 55°60' E 012°42'2 1.6
2014-Jul-24 05:31N 55°60' E 012°45'0 0.0
2014-Jul-24 04:31N 55°60' E 012°45'0 0.0
2014-Jul-24 03:31N 55°60' E 012°45'0 0.0
2014-Jul-24 02:31N 55°60' E 012°45'0 0.0
2014-Jul-24 01:31N 55°60' E 012°45'0 0.0
2014-Jul-24 00:31N 55°60' E 012°45'0 0.0
2014-Jul-23 23:28N 55°60' E 012°45'0 0.0
2014-Jul-23 22:31N 55°60' E 012°45'0 0.0
2014-Jul-23 21:31N 55°60' E 012°45'0 0.0
2014-Jul-23 20:33N 55°60' E 012°45'0 0.0
2014-Jul-23 19:31N 55°60' E 012°45'0 0.0
2014-Jul-23 18:31N 55°60' E 012°45'0 0.0
2014-Jul-23 17:31N 55°60' E 012°45'0 0.0
2014-Jul-23 16:28N 55°60' E 012°45'0 0.0
2014-Jul-23 15:31N 55°60' E 012°45'1 1.3
2014-Jul-23 14:33N 55°58' E 012°44'2 2.3
2014-Jul-23 13:33N 55°56' E 012°44'3 3.4
2014-Jul-23 12:32N 55°60' E 012°45'0 0.0
2014-Jul-23 11:32N 55°60' E 012°45'0 0.0
2014-Jul-23 10:32N 55°60' E 012°45'4 3.7
2014-Jul-23 09:31N 55°56' E 012°42'1 0.5
2014-Jul-23 08:33N 55°57' E 012°41'1 0.7
2014-Jul-23 07:33N 55°57' E 012°41'2 2.3
2014-Jul-23 06:33N 55°60' E 012°42'2 1.7
2014-Jul-23 05:33N 55°60' E 012°45'0 0.0
2014-Jul-23 04:33N 55°60' E 012°45'0 0.0
2014-Jul-23 03:33N 55°60' E 012°45'0 0.0
2014-Jul-23 02:33N 55°60' E 012°45'0 0.0
2014-Jul-23 01:33N 55°60' E 012°45'0 0.0
2014-Jul-23 00:33N 55°60' E 012°45'0 0.0
2014-Jul-22 23:33N 55°60' E 012°45'0 0.0
2014-Jul-22 22:33N 55°60' E 012°45'0 0.0
2014-Jul-22 21:33N 55°60' E 012°45'0 0.0
2014-Jul-22 20:30N 55°60' E 012°45'0 0.0
2014-Jul-22 19:33N 55°60' E 012°45'0 0.0
2014-Jul-22 18:33N 55°60' E 012°45'0 0.0
2014-Jul-22 17:30N 55°60' E 012°45'0 0.0
2014-Jul-22 16:33N 55°60' E 012°45'0 0.0
2014-Jul-22 15:33N 55°60' E 012°45'0 0.0
2014-Jul-22 14:33N 55°60' E 012°45'0 0.0
2014-Jul-22 13:27N 55°60' E 012°45'0 0.0
2014-Jul-22 12:33N 55°60' E 012°45'0 0.0
2014-Jul-22 11:30N 55°60' E 012°45'0 0.0
2014-Jul-22 10:33N 55°60' E 012°45'4 3.6
2014-Jul-22 09:31N 55°56' E 012°42'1 1.3
2014-Jul-22 08:32N 55°57' E 012°41'1 1.2
2014-Jul-22 07:33N 55°59' E 012°41'1 1.0
2014-Jul-22 06:33N 55°60' E 012°41'2 1.7
2014-Jul-22 05:33N 55°60' E 012°45'0 0.0
2014-Jul-22 04:33N 55°60' E 012°45'0 0.0
2014-Jul-22 03:33N 55°60' E 012°45'0 0.0
2014-Jul-22 02:33N 55°60' E 012°45'0 0.0
2014-Jul-22 01:33N 55°60' E 012°45'0 0.0
2014-Jul-22 00:33N 55°60' E 012°45'0 0.0
2014-Jul-21 23:33N 55°60' E 012°45'0 0.0
2014-Jul-21 22:33N 55°60' E 012°45'0 0.0
2014-Jul-21 21:33N 55°60' E 012°45'0 0.0
2014-Jul-21 20:33N 55°60' E 012°45'0 0.0
2014-Jul-21 20:15N 55°60' E 012°45'0 0.0
2014-Jul-21 19:33N 55°60' E 012°45'0 0.0
2014-Jul-21 18:33N 55°60' E 012°45'0 0.0
2014-Jul-21 17:30N 55°60' E 012°45'0 0.0
2014-Jul-21 16:33N 55°60' E 012°45'0 0.0
2014-Jul-21 15:30N 55°60' E 012°45'3 3.2
2014-Jul-21 14:33N 55°57' E 012°44'2 2.1
2014-Jul-21 13:33N 55°54' E 012°44'5 5.0
2014-Jul-21 12:31N 55°60' E 012°45'0 0.0
2014-Jul-21 11:31N 55°60' E 012°45'0 0.0
2014-Jul-21 10:28N 55°60' E 012°45'0 0.0
2014-Jul-21 09:31N 55°60' E 012°45'2 2.6
2014-Jul-21 08:33N 55°57' E 012°43'1 1.3
2014-Jul-21 07:32N 55°56' E 012°44'4 3.7
2014-Jul-21 06:32N 55°60' E 012°45'  
Track history (hours):
 
Tides and Currents Weather Stations Pressure Air Temp Water Temp Dewpoint Dewpoint Depression Visibility Wind Speed Wind Dir Waves Ship Positions

Siam

Last reported at 2014-Jul-31 06:32 UTC. Time now 2014-Jul-31 07:31 UTC.
Position N 55°54' E 012°44'.

Length 22 m.

Type: Passenger vessel. MMSI: 265572320.

Date/timePositionNaut miles runAvg speedWind from/ knotsBaromVisibWave heightAir tempDewpointWater temp
2014-Jul-31 06:32N 55°54' E 012°44'5 5.2
2014-Jul-31 05:33N 55°60' E 012°45'0 0.0
2014-Jul-31 04:33N 55°60' E 012°45'0 0.0
2014-Jul-31 03:33N 55°60' E 012°45'0 0.0
2014-Jul-31 02:33N 55°60' E 012°45'0 0.0
2014-Jul-31 01:33N 55°60' E 012°45'0 0.0
2014-Jul-31 00:33N 55°60' E 012°45'0 0.0
2014-Jul-30 23:33N 55°60' E 012°45'0 0.0
2014-Jul-30 22:33N 55°60' E 012°45'0 0.0
2014-Jul-30 21:33N 55°60' E 012°45'0 0.0
2014-Jul-30 20:30N 55°60' E 012°45'0 0.0
2014-Jul-30 19:30N 55°60' E 012°45'0 0.0
2014-Jul-30 18:33N 55°60' E 012°45'0 0.0
2014-Jul-30 17:33N 55°60' E 012°45'0 0.0
2014-Jul-30 16:33N 55°60' E 012°45'0 0.0
2014-Jul-30 15:33N 55°60' E 012°45'5 3.8
2014-Jul-30 14:08N 55°54' E 012°43'5 8.9
2014-Jul-30 13:33N 55°59' E 012°44'5 4.3
2014-Jul-30 12:21N 55°54' E 012°43'5 6.3
2014-Jul-30 11:33N 55°59' E 012°44'0 0.4
2014-Jul-30 10:31N 55°60' E 012°45'4 3.7
2014-Jul-30 09:34N 55°56' E 012°43'0 0.2
2014-Jul-30 08:33N 55°56' E 012°44'0 0.3
2014-Jul-30 07:31N 55°56' E 012°43'2 1.7
2014-Jul-30 06:33N 55°58' E 012°43'2 2.2
2014-Jul-30 05:31N 55°60' E 012°45'0 0.0
2014-Jul-30 04:31N 55°60' E 012°45'0 0.0
2014-Jul-30 03:31N 55°60' E 012°45'0 0.0
2014-Jul-30 02:31N 55°60' E 012°45'0 0.0
2014-Jul-30 01:31N 55°60' E 012°45'0 0.0
2014-Jul-30 00:28N 55°60' E 012°45'0 0.0
2014-Jul-29 23:31N 55°60' E 012°45'0 0.0
2014-Jul-29 22:31N 55°60' E 012°45'0 0.0
2014-Jul-29 21:31N 55°60' E 012°45'0 0.0
2014-Jul-29 20:31N 55°60' E 012°45'0 0.0
2014-Jul-29 19:31N 55°60' E 012°45'0 0.0
2014-Jul-29 18:31N 55°60' E 012°45'0 0.0
2014-Jul-29 17:31N 55°60' E 012°45'0 0.0
2014-Jul-29 16:31N 55°60' E 012°45'0 0.0
2014-Jul-29 15:31N 55°60' E 012°45'2 2.2
2014-Jul-29 14:33N 55°58' E 012°44'2 1.5
2014-Jul-29 13:32N 55°56' E 012°44'0 0.1
2014-Jul-29 12:31N 55°56' E 012°44'4 3.7
2014-Jul-29 11:33N 55°60' E 012°45'0 0.0
2014-Jul-29 10:33N 55°60' E 012°45'4 3.7
2014-Jul-29 09:33N 55°56' E 012°44'2 2.3
2014-Jul-29 08:33N 55°56' E 012°40'2 1.6
2014-Jul-29 07:31N 55°57' E 012°41'2 2.2
2014-Jul-29 06:34N 55°60' E 012°42'2 1.7
2014-Jul-29 05:33N 55°60' E 012°45'0 0.0
2014-Jul-29 04:21N 55°60' E 012°45'0 0.0
2014-Jul-29 03:33N 55°60' E 012°45'0 0.0
2014-Jul-29 02:27N 55°60' E 012°45'0 0.0
2014-Jul-29 01:33N 55°60' E 012°45'0 0.0
2014-Jul-29 00:27N 55°60' E 012°45'0 0.0
2014-Jul-28 23:33N 55°60' E 012°45'0 0.0
2014-Jul-28 22:33N 55°60' E 012°45'0 0.0
2014-Jul-28 21:33N 55°60' E 012°45'0 0.0
2014-Jul-28 20:30N 55°60' E 012°45'0 0.0
2014-Jul-28 19:33N 55°60' E 012°45'0 0.0
2014-Jul-28 18:33N 55°60' E 012°45'0 0.0
2014-Jul-28 17:33N 55°60' E 012°45'0 0.0
2014-Jul-28 16:33N 55°60' E 012°45'0 0.0
2014-Jul-28 15:33N 55°60' E 012°45'0 0.0
2014-Jul-28 14:33N 55°60' E 012°45'0 0.0
2014-Jul-28 13:33N 55°60' E 012°45'0 0.0
2014-Jul-28 12:33N 55°60' E 012°45'0 0.0
2014-Jul-28 11:33N 55°60' E 012°45'0 0.0
2014-Jul-28 10:33N 55°60' E 012°45'0 0.0
2014-Jul-28 09:33N 55°60' E 012°45'0 0.0
2014-Jul-28 08:30N 55°60' E 012°45'0 0.0
2014-Jul-28 07:21N 55°60' E 012°45'0 0.0
2014-Jul-28 06:33N 55°60' E 012°45'0 0.0
2014-Jul-28 05:33N 55°60' E 012°45'0 0.0
2014-Jul-28 04:33N 55°60' E 012°45'0 0.0
2014-Jul-28 03:33N 55°60' E 012°45'0 0.0
2014-Jul-28 02:33N 55°60' E 012°45'0 0.0
2014-Jul-28 01:33N 55°60' E 012°45'0 0.0
2014-Jul-28 00:33N 55°60' E 012°45'0 0.0
2014-Jul-27 23:30N 55°60' E 012°45'0 0.0
2014-Jul-27 22:33N 55°60' E 012°45'0 0.0
2014-Jul-27 21:33N 55°60' E 012°45'0 0.0
2014-Jul-27 20:30N 55°60' E 012°45'0 0.0
2014-Jul-27 19:33N 55°60' E 012°45'0 0.0
2014-Jul-27 18:33N 55°60' E 012°45'0 0.0
2014-Jul-27 17:30N 55°60' E 012°45'0 0.0
2014-Jul-27 16:27N 55°60' E 012°45'0 0.0
2014-Jul-27 15:33N 55°60' E 012°45'3 3.0
2014-Jul-27 14:33N 55°57' E 012°44'1 1.4
2014-Jul-27 13:33N 55°58' E 012°44'2 1.6
2014-Jul-27 12:32N 55°60' E 012°45'0 0.0
2014-Jul-27 11:32N 55°60' E 012°45'0 0.0
2014-Jul-27 10:32N 55°60' E 012°45'1 1.4
2014-Jul-27 09:32N 55°60' E 012°42'0 0.2
2014-Jul-27 08:31N 55°59' E 012°42'0 0.1
2014-Jul-27 07:32N 55°60' E 012°42'0 0.0
2014-Jul-27 06:33N 55°59' E 012°42'1 1.4
2014-Jul-27 05:32N 55°60' E 012°45'0 0.0
2014-Jul-27 04:29N 55°60' E 012°45'0 0.0
2014-Jul-27 03:32N 55°60' E 012°45'0 0.0
2014-Jul-27 02:32N 55°60' E 012°45'0 0.0
2014-Jul-27 01:32N 55°60' E 012°45'0 0.0
2014-Jul-27 00:32N 55°60' E 012°45'0 0.0
2014-Jul-26 23:32N 55°60' E 012°45'0 0.0
2014-Jul-26 22:29N 55°60' E 012°45'0 0.0
2014-Jul-26 21:29N 55°60' E 012°45'0 0.0
2014-Jul-26 20:32N 55°60' E 012°45'0 0.0
2014-Jul-26 19:32N 55°60' E 012°45'0 0.0
2014-Jul-26 18:32N 55°60' E 012°45'0 0.0
2014-Jul-26 17:32N 55°60' E 012°45'0 0.0
2014-Jul-26 16:32N 55°60' E 012°45'0 0.0
2014-Jul-26 15:29N 55°60' E 012°45'2 2.4
2014-Jul-26 14:33N 55°57' E 012°44'2 1.7
2014-Jul-26 13:33N 55°56' E 012°44'4 3.7
2014-Jul-26 12:29N 55°60' E 012°45'0 0.0
2014-Jul-26 11:29N 55°60' E 012°45'0 0.0
2014-Jul-26 10:32N 55°60' E 012°45'4 3.6
2014-Jul-26 09:31N 55°56' E 012°41'1 1.3
2014-Jul-26 08:33N 55°58' E 012°41'2 1.9
2014-Jul-26 07:33N 55°60' E 012°42'0 0.2
2014-Jul-26 06:34N 55°59' E 012°42'1 1.4
2014-Jul-26 05:29N 55°60' E 012°45'0 0.0
2014-Jul-26 04:32N 55°60' E 012°45'0 0.0
2014-Jul-26 03:32N 55°60' E 012°45'0 0.0
2014-Jul-26 02:32N 55°60' E 012°45'0 0.0
2014-Jul-26 01:32N 55°60' E 012°45'0 0.0
2014-Jul-26 00:29N 55°60' E 012°45'0 0.0
2014-Jul-25 23:32N 55°60' E 012°45'0 0.0
2014-Jul-25 22:32N 55°60' E 012°45'0 0.0
2014-Jul-25 21:32N 55°60' E 012°45'0 0.0
2014-Jul-25 20:32N 55°60' E 012°45'0 0.0
2014-Jul-25 19:32N 55°60' E 012°45'0 0.0
2014-Jul-25 18:32N 55°60' E 012°45'0 0.0
2014-Jul-25 17:32N 55°60' E 012°45'0 0.0
2014-Jul-25 16:32N 55°60' E 012°45'0 0.0
2014-Jul-25 15:32N 55°60' E 012°45'0 0.0
2014-Jul-25 14:32N 55°60' E 012°45'0 0.0
2014-Jul-25 13:32N 55°60' E 012°45'0 0.0
2014-Jul-25 12:29N 55°60' E 012°45'0 0.0
2014-Jul-25 11:32N 55°60' E 012°45'0 0.0
2014-Jul-25 10:32N 55°60' E 012°45'4 3.6
2014-Jul-25 09:31N 55°56' E 012°42'2 2.4
2014-Jul-25 08:33N 55°59' E 012°42'1 0.9
2014-Jul-25 07:32N 55°60' E 012°42'0 0.1
2014-Jul-25 06:33N 55°59' E 012°42'2 1.6
2014-Jul-25 05:32N 55°60' E 012°45'0 0.0
2014-Jul-25 04:32N 55°60' E 012°45'0 0.0
2014-Jul-25 03:32N 55°60' E 012°45'0 0.0
2014-Jul-25 02:32N 55°60' E 012°45'0 0.0
2014-Jul-25 01:32N 55°60' E 012°45'0 0.0
2014-Jul-25 00:32N 55°60' E 012°45'0 0.0
2014-Jul-24 23:32N 55°60' E 012°45'0 0.0
2014-Jul-24 22:32N 55°60' E 012°45'0 0.0
2014-Jul-24 21:32N 55°60' E 012°45'0 0.0
2014-Jul-24 20:32N 55°60' E 012°45'0 0.0
2014-Jul-24 19:32N 55°60' E 012°45'0 0.0
2014-Jul-24 18:32N 55°60' E 012°45'0 0.0
2014-Jul-24 17:32N 55°60' E 012°45'0 0.0
2014-Jul-24 16:32N 55°60' E 012°45'0 0.0
2014-Jul-24 15:32N 55°60' E 012°45'0 0.0
2014-Jul-24 14:32N 55°60' E 012°45'0 0.0
2014-Jul-24 13:32N 55°60' E 012°45'0 0.0
2014-Jul-24 12:32N 55°60' E 012°45'0 0.0
2014-Jul-24 11:32N 55°60' E 012°45'0 0.0
2014-Jul-24 10:29N 55°60' E 012°45'4 3.8
2014-Jul-24 09:33N 55°56' E 012°43'1 1.1
2014-Jul-24 08:33N 55°56' E 012°41'1 1.2
2014-Jul-24 07:33N 55°57' E 012°41'2 2.2
2014-Jul-24 06:32N 55°60' E 012°42'2 1.6
2014-Jul-24 05:31N 55°60' E 012°45'0 0.0
2014-Jul-24 04:31N 55°60' E 012°45'0 0.0
2014-Jul-24 03:31N 55°60' E 012°45'0 0.0
2014-Jul-24 02:31N 55°60' E 012°45'0 0.0
2014-Jul-24 01:31N 55°60' E 012°45'0 0.0
2014-Jul-24 00:31N 55°60' E 012°45'0 0.0
2014-Jul-23 23:28N 55°60' E 012°45'0 0.0
2014-Jul-23 22:31N 55°60' E 012°45'0 0.0
2014-Jul-23 21:31N 55°60' E 012°45'0 0.0
2014-Jul-23 20:33N 55°60' E 012°45'0 0.0
2014-Jul-23 19:31N 55°60' E 012°45'0 0.0
2014-Jul-23 18:31N 55°60' E 012°45'0 0.0
2014-Jul-23 17:31N 55°60' E 012°45'0 0.0
2014-Jul-23 16:28N 55°60' E 012°45'0 0.0
2014-Jul-23 15:31N 55°60' E 012°45'1 1.3
2014-Jul-23 14:33N 55°58' E 012°44'2 2.3
2014-Jul-23 13:33N 55°56' E 012°44'3 3.4
2014-Jul-23 12:32N 55°60' E 012°45'0 0.0
2014-Jul-23 11:32N 55°60' E 012°45'0 0.0
2014-Jul-23 10:32N 55°60' E 012°45'4 3.7
2014-Jul-23 09:31N 55°56' E 012°42'1 0.5
2014-Jul-23 08:33N 55°57' E 012°41'1 0.7
2014-Jul-23 07:33N 55°57' E 012°41'2 2.3
2014-Jul-23 06:33N 55°60' E 012°42'2 1.7
2014-Jul-23 05:33N 55°60' E 012°45'0 0.0
2014-Jul-23 04:33N 55°60' E 012°45'0 0.0
2014-Jul-23 03:33N 55°60' E 012°45'0 0.0
2014-Jul-23 02:33N 55°60' E 012°45'0 0.0
2014-Jul-23 01:33N 55°60' E 012°45'0 0.0
2014-Jul-23 00:33N 55°60' E 012°45'0 0.0
2014-Jul-22 23:33N 55°60' E 012°45'0 0.0
2014-Jul-22 22:33N 55°60' E 012°45'0 0.0
2014-Jul-22 21:33N 55°60' E 012°45'0 0.0
2014-Jul-22 20:30N 55°60' E 012°45'0 0.0
2014-Jul-22 19:33N 55°60' E 012°45'0 0.0
2014-Jul-22 18:33N 55°60' E 012°45'0 0.0
2014-Jul-22 17:30N 55°60' E 012°45'0 0.0
2014-Jul-22 16:33N 55°60' E 012°45'0 0.0
2014-Jul-22 15:33N 55°60' E 012°45'0 0.0
2014-Jul-22 14:33N 55°60' E 012°45'0 0.0
2014-Jul-22 13:27N 55°60' E 012°45'0 0.0
2014-Jul-22 12:33N 55°60' E 012°45'0 0.0
2014-Jul-22 11:30N 55°60' E 012°45'0 0.0
2014-Jul-22 10:33N 55°60' E 012°45'4 3.6
2014-Jul-22 09:31N 55°56' E 012°42'1 1.3
2014-Jul-22 08:32N 55°57' E 012°41'1 1.2
2014-Jul-22 07:33N 55°59' E 012°41'1 1.0
2014-Jul-22 06:33N 55°60' E 012°41'2 1.7
2014-Jul-22 05:33N 55°60' E 012°45'0 0.0
2014-Jul-22 04:33N 55°60' E 012°45'0 0.0
2014-Jul-22 03:33N 55°60' E 012°45'0 0.0
2014-Jul-22 02:33N 55°60' E 012°45'0 0.0
2014-Jul-22 01:33N 55°60' E 012°45'0 0.0
2014-Jul-22 00:33N 55°60' E 012°45'0 0.0
2014-Jul-21 23:33N 55°60' E 012°45'0 0.0
2014-Jul-21 22:33N 55°60' E 012°45'0 0.0
2014-Jul-21 21:33N 55°60' E 012°45'0 0.0
2014-Jul-21 20:33N 55°60' E 012°45'0 0.0
2014-Jul-21 20:15N 55°60' E 012°45'0 0.0
2014-Jul-21 19:33N 55°60' E 012°45'0 0.0
2014-Jul-21 18:33N 55°60' E 012°45'0 0.0
2014-Jul-21 17:30N 55°60' E 012°45'0 0.0
2014-Jul-21 16:33N 55°60' E 012°45'0 0.0
2014-Jul-21 15:30N 55°60' E 012°45'3 3.2
2014-Jul-21 14:33N 55°57' E 012°44'2 2.1
2014-Jul-21 13:33N 55°54' E 012°44'5 5.0
2014-Jul-21 12:31N 55°60' E 012°45'0 0.0
2014-Jul-21 11:31N 55°60' E 012°45'0 0.0
2014-Jul-21 10:28N 55°60' E 012°45'0 0.0
2014-Jul-21 09:31N 55°60' E 012°45'2 2.6
2014-Jul-21 08:33N 55°57' E 012°43'1 1.3
2014-Jul-21 07:32N 55°56' E 012°44'4 3.7
2014-Jul-21 06:32N 55°60' E 012°45'  

Dump ship's entire track history